createdAt,value
2022-08-05T00:00:25.972Z,20.10
2022-08-05T00:01:20.109Z,20.10
2022-08-05T00:01:49.867Z,20.10
2022-08-05T00:02:24.674Z,20.10
2022-08-05T00:02:56.693Z,20.10
2022-08-05T00:03:28.674Z,20.10
2022-08-05T00:04:05.257Z,20.10
2022-08-05T00:04:40.368Z,20.00
2022-08-05T00:06:02.723Z,20.00
2022-08-05T00:06:23.379Z,19.90
2022-08-05T00:06:57.303Z,20.00
2022-08-05T00:08:00.291Z,19.90
2022-08-05T00:08:35.199Z,20.00
2022-08-05T00:09:14.792Z,20.00
2022-08-05T00:09:47.883Z,19.90
2022-08-05T00:10:19.758Z,19.90
2022-08-05T00:11:01.352Z,19.90
2022-08-05T00:11:34.974Z,19.90
2022-08-05T00:12:19.147Z,19.80
2022-08-05T00:12:56.695Z,19.90
2022-08-05T00:13:38.361Z,19.90
2022-08-05T00:14:12.080Z,19.80
2022-08-05T00:14:51.615Z,19.90
2022-08-05T00:15:55.109Z,19.90
2022-08-05T00:16:16.667Z,19.90
2022-08-05T00:16:52.804Z,19.90
2022-08-05T00:17:25.856Z,19.90
2022-08-05T00:17:57.787Z,19.90
2022-08-05T00:18:34.450Z,19.90
2022-08-05T00:19:06.474Z,19.90
2022-08-05T00:19:44.149Z,19.40
2022-08-05T00:20:30.197Z,19.90
2022-08-05T00:21:02.055Z,19.80
2022-08-05T00:21:35.694Z,19.90
2022-08-05T00:22:08.047Z,19.80
2022-08-05T00:22:47.174Z,19.80
2022-08-05T00:23:44.701Z,19.70
2022-08-05T00:24:24.686Z,19.70
2022-08-05T00:25:03.126Z,19.70
2022-08-05T00:25:45.905Z,19.70
2022-08-05T00:26:19.708Z,19.70
2022-08-05T00:26:53.007Z,19.70
2022-08-05T00:27:28.568Z,19.70
2022-08-05T00:28:08.770Z,19.70
2022-08-05T00:28:45.935Z,19.70
2022-08-05T00:29:17.892Z,19.80
2022-08-05T00:29:50.045Z,19.70
2022-08-05T00:30:21.873Z,19.80
2022-08-05T00:31:04.856Z,19.80
2022-08-05T00:31:53.806Z,19.70
2022-08-05T00:32:31.429Z,19.80
2022-08-05T00:33:03.508Z,19.80
2022-08-05T00:34:54.290Z,19.80
2022-08-05T00:34:56.986Z,19.80
2022-08-05T00:35:20.329Z,19.70
2022-08-05T00:36:16.225Z,19.70
2022-08-05T00:37:10.573Z,19.70
2022-08-05T00:37:53.604Z,19.70
2022-08-05T00:38:28.884Z,19.70
2022-08-05T00:39:13.742Z,19.70
2022-08-05T00:39:58.114Z,19.70
2022-08-05T00:40:30.957Z,19.70
2022-08-05T00:41:05.542Z,19.70
2022-08-05T00:41:54.894Z,19.70
2022-08-05T00:42:38.086Z,19.70
2022-08-05T00:43:09.887Z,19.70
2022-08-05T00:43:49.902Z,19.70
2022-08-05T00:44:23.330Z,19.60
2022-08-05T00:45:03.774Z,19.60
2022-08-05T00:45:43.178Z,19.60
2022-08-05T00:46:15.848Z,19.60
2022-08-05T00:46:47.886Z,19.60
2022-08-05T00:47:26.500Z,19.60
2022-08-05T00:48:27.587Z,19.60
2022-08-05T00:49:03.969Z,19.60
2022-08-05T00:49:50.996Z,19.60
2022-08-05T00:50:25.094Z,19.50
2022-08-05T00:50:57.530Z,19.50
2022-08-05T00:51:52.022Z,19.60
2022-08-05T00:52:21.566Z,19.50
2022-08-05T00:53:00.720Z,19.60
2022-08-05T00:54:01.375Z,19.60
2022-08-05T00:54:28.063Z,19.60
2022-08-05T00:55:02.095Z,19.50
2022-08-05T00:55:42.929Z,19.50
2022-08-05T00:56:17.508Z,19.50
2022-08-05T00:56:54.838Z,19.50
2022-08-05T00:57:31.861Z,19.40
2022-08-05T00:58:16.846Z,19.50
2022-08-05T00:58:51.033Z,19.40
2022-08-05T00:59:25.516Z,19.40
2022-08-05T01:00:11.227Z,19.40
2022-08-05T01:00:46.832Z,19.40
2022-08-05T01:01:24.963Z,19.40
2022-08-05T01:02:10.638Z,19.40
2022-08-05T01:02:43.209Z,19.40
2022-08-05T01:03:23.145Z,19.40
2022-08-05T01:03:55.262Z,19.40
2022-08-05T01:04:29.938Z,19.40
2022-08-05T01:05:02.469Z,19.40
2022-08-05T01:05:42.285Z,19.40
2022-08-05T01:06:15.527Z,19.40
2022-08-05T01:06:51.717Z,19.40
2022-08-05T01:07:31.677Z,19.40
2022-08-05T01:08:41.179Z,19.40
2022-08-05T01:13:59.765Z,19.70
2022-08-05T01:14:35.175Z,19.70
2022-08-05T05:02:37.111Z,18.00
2022-08-05T05:03:13.639Z,18.00
2022-08-05T05:03:50.591Z,17.90
2022-08-05T05:05:34.363Z,17.80
2022-08-05T05:06:40.279Z,17.80
2022-08-05T05:07:17.513Z,17.60
2022-08-05T05:07:52.883Z,17.70
2022-08-05T05:08:30.071Z,17.70
2022-08-05T05:09:02.257Z,17.60
2022-08-05T05:09:38.125Z,17.70
2022-08-05T05:10:10.011Z,17.70
2022-08-05T05:10:55.965Z,17.70
2022-08-05T05:11:41.539Z,18.80
2022-08-05T05:12:19.985Z,17.70
2022-08-05T05:12:54.077Z,17.70
2022-08-05T05:13:26.186Z,17.70
2022-08-05T05:14:04.518Z,17.70
2022-08-05T05:14:49.417Z,17.60
2022-08-05T05:15:57.512Z,17.70
2022-08-05T05:16:15.521Z,17.70
2022-08-05T05:16:51.462Z,17.70
2022-08-05T05:17:55.415Z,17.60
2022-08-05T05:18:31.213Z,17.60
2022-08-05T05:19:18.071Z,17.60
2022-08-05T05:19:54.991Z,17.60
2022-08-05T05:20:29.033Z,17.00
2022-08-05T05:21:02.029Z,17.60
2022-08-05T05:21:34.986Z,17.60
2022-08-05T05:22:23.382Z,17.60
2022-08-05T05:22:58.486Z,17.60
2022-08-05T05:23:39.041Z,17.50
2022-08-05T05:24:22.185Z,17.60
2022-08-05T05:25:16.495Z,17.50
2022-08-05T05:25:49.199Z,17.50
2022-08-05T05:26:28.707Z,17.50
2022-08-05T05:27:04.733Z,17.50
2022-08-05T05:27:44.866Z,17.50
2022-08-05T05:28:17.795Z,17.50
2022-08-05T05:28:49.659Z,17.60
2022-08-05T05:29:21.411Z,17.50
2022-08-05T05:30:04.464Z,17.50
2022-08-05T05:30:38.345Z,17.50
2022-08-05T05:31:10.128Z,17.50
2022-08-05T05:31:43.002Z,17.50
2022-08-05T05:32:18.407Z,17.50
2022-08-05T05:32:50.818Z,17.50
2022-08-05T05:33:23.504Z,17.50
2022-08-05T05:33:59.385Z,17.50
2022-08-05T05:34:33.615Z,17.50
2022-08-05T05:35:05.995Z,17.50
2022-08-05T05:35:39.548Z,17.50
2022-08-05T05:36:11.628Z,17.40
2022-08-05T05:36:47.171Z,17.50
2022-08-05T05:37:20.353Z,17.40
2022-08-05T05:38:03.011Z,17.50
2022-08-05T05:38:34.843Z,17.40
2022-08-05T05:39:10.900Z,17.40
2022-08-05T05:39:42.945Z,17.40
2022-08-05T05:40:18.792Z,17.40
2022-08-05T05:40:51.931Z,17.40
2022-08-05T05:41:23.902Z,17.40
2022-08-05T05:41:55.797Z,17.40
2022-08-05T05:42:28.441Z,17.40
2022-08-05T05:43:00.486Z,16.80
2022-08-05T05:43:57.319Z,17.40
2022-08-05T05:44:36.602Z,17.80
2022-08-05T05:45:10.305Z,17.40
2022-08-05T05:45:48.211Z,17.40
2022-08-05T05:46:20.345Z,17.40
2022-08-05T05:46:53.746Z,17.40
2022-08-05T05:47:28.305Z,17.30
2022-08-05T05:48:06.196Z,17.30
2022-08-05T05:48:41.638Z,17.30
2022-08-05T05:49:22.909Z,17.30
2022-08-05T05:50:01.606Z,17.30
2022-08-05T05:50:41.210Z,17.30
2022-08-05T05:51:20.131Z,17.30
2022-08-05T05:51:52.364Z,17.30
2022-08-05T05:52:26.387Z,17.20
2022-08-05T05:53:01.758Z,17.30
2022-08-05T05:53:58.907Z,17.20
2022-08-05T05:54:50.270Z,17.30
2022-08-05T05:55:22.995Z,17.30
2022-08-05T05:56:14.811Z,17.30
2022-08-05T05:56:58.019Z,17.20
2022-08-05T05:57:42.894Z,17.20
2022-08-05T05:58:21.614Z,17.30
2022-08-05T05:59:06.684Z,17.20
2022-08-05T05:59:40.280Z,17.20
2022-08-05T06:00:16.057Z,17.30
2022-08-05T06:00:51.117Z,17.20
2022-08-05T06:01:23.454Z,17.20
2022-08-05T06:01:57.716Z,17.20
2022-08-05T06:02:32.575Z,17.20
2022-08-05T06:03:39.855Z,17.20
2022-08-05T06:04:03.667Z,17.20
2022-08-05T06:04:35.888Z,17.20
2022-08-05T06:05:10.541Z,17.20
2022-08-05T06:05:53.906Z,17.20
2022-08-05T06:06:27.728Z,17.20
2022-08-05T06:07:01.564Z,17.20
2022-08-05T06:07:41.367Z,17.20
2022-08-05T06:08:14.338Z,17.20
2022-08-05T06:09:05.983Z,17.20
2022-08-05T06:10:00.124Z,17.10
2022-08-05T06:10:36.654Z,17.10
2022-08-05T06:11:21.219Z,17.20
2022-08-05T06:12:00.990Z,17.20
2022-08-05T06:12:35.442Z,17.20
2022-08-05T06:13:13.955Z,17.10
2022-08-05T06:13:50.197Z,17.10
2022-08-05T06:14:28.123Z,17.10
2022-08-05T06:15:01.982Z,17.10
2022-08-05T06:16:27.480Z,16.40
2022-08-05T06:16:30.954Z,17.10
2022-08-05T06:17:22.475Z,17.10
2022-08-05T06:17:56.374Z,17.10
2022-08-05T06:18:31.085Z,17.10
2022-08-05T06:19:05.854Z,17.10
2022-08-05T06:19:40.274Z,17.10
2022-08-05T06:20:21.326Z,17.10
2022-08-05T06:20:54.278Z,17.10
2022-08-05T06:21:35.895Z,17.10
2022-08-05T06:22:09.690Z,17.10
2022-08-05T06:22:41.518Z,17.10
2022-08-05T06:23:14.307Z,16.90
2022-08-05T06:23:46.806Z,17.10
2022-08-05T06:24:25.655Z,17.10
2022-08-05T06:24:58.115Z,17.10
2022-08-05T06:26:12.219Z,17.00
2022-08-05T06:26:23.987Z,17.00
2022-08-05T06:26:56.999Z,17.00
2022-08-05T06:28:12.714Z,17.00
2022-08-05T06:28:21.906Z,17.10
2022-08-05T06:28:53.977Z,17.00
2022-08-05T06:29:48.891Z,17.00
2022-08-05T06:30:21.143Z,17.00
2022-08-05T06:30:53.273Z,17.00
2022-08-05T06:31:32.096Z,17.00
2022-08-05T06:32:04.314Z,17.00
2022-08-05T06:32:36.102Z,17.00
2022-08-05T06:33:09.793Z,17.00
2022-08-05T06:34:06.022Z,17.00
2022-08-05T06:34:33.726Z,17.00
2022-08-05T06:35:15.374Z,17.00
2022-08-05T06:36:07.556Z,17.00
2022-08-05T06:36:57.150Z,17.00
2022-08-05T06:37:55.622Z,17.00
2022-08-05T06:38:36.779Z,17.00
2022-08-05T06:39:08.907Z,17.00
2022-08-05T06:39:40.738Z,17.00
2022-08-05T06:40:14.106Z,17.00
2022-08-05T06:40:52.322Z,17.00
2022-08-05T06:41:24.350Z,17.00
2022-08-05T06:41:58.885Z,17.00
2022-08-05T06:42:30.951Z,17.00
2022-08-05T06:43:03.258Z,17.00
2022-08-05T06:43:51.588Z,17.00
2022-08-05T06:44:28.004Z,17.00
2022-08-05T06:44:59.948Z,16.90
2022-08-05T06:46:03.193Z,17.00
2022-08-05T06:46:30.014Z,17.00
2022-08-05T06:47:02.530Z,17.00
2022-08-05T06:48:36.777Z,17.00
2022-08-05T06:48:52.887Z,16.90
2022-08-05T06:49:18.966Z,16.90
2022-08-05T06:50:00.352Z,16.90
2022-08-05T06:50:32.863Z,16.90
2022-08-05T06:51:09.592Z,16.90
2022-08-05T06:51:41.756Z,16.90
2022-08-05T06:52:37.336Z,16.90
2022-08-05T06:53:19.638Z,16.90
2022-08-05T06:53:59.967Z,16.90
2022-08-05T06:54:31.740Z,16.90
2022-08-05T06:55:04.073Z,16.90
2022-08-05T06:55:36.714Z,16.90
2022-08-05T06:56:25.929Z,16.90
2022-08-05T06:57:56.713Z,16.90
2022-08-05T06:58:02.610Z,16.90
2022-08-05T06:58:42.669Z,16.90
2022-08-05T06:59:18.594Z,16.90
2022-08-05T06:59:57.907Z,16.90
2022-08-05T07:00:31.297Z,16.90
2022-08-05T07:01:06.105Z,16.90
2022-08-05T07:01:40.661Z,16.90
2022-08-05T07:02:14.077Z,16.90
2022-08-05T07:02:47.617Z,17.20
2022-08-05T07:03:32.515Z,16.90
2022-08-05T07:04:04.841Z,16.90
2022-08-05T07:04:36.682Z,17.00
2022-08-05T07:05:15.378Z,17.00
2022-08-05T07:05:51.113Z,16.90
2022-08-05T07:06:23.261Z,16.90
2022-08-05T07:06:55.075Z,16.90
2022-08-05T07:07:35.506Z,16.90
2022-08-05T07:08:15.181Z,16.90
2022-08-05T07:08:47.847Z,16.90
2022-08-05T07:09:24.914Z,16.90
2022-08-05T07:09:58.421Z,16.90
2022-08-05T07:10:32.196Z,17.40
2022-08-05T07:11:05.378Z,16.80
2022-08-05T07:11:51.372Z,16.90
2022-08-05T07:12:43.885Z,16.90
2022-08-05T07:13:57.913Z,16.90
2022-08-05T07:14:50.328Z,16.90
2022-08-05T07:16:01.828Z,16.90
2022-08-05T07:17:56.300Z,16.90
2022-08-05T07:17:59.877Z,16.90
2022-08-05T07:18:34.729Z,16.90
2022-08-05T07:19:06.813Z,17.00
2022-08-05T07:20:33.840Z,17.00
2022-08-05T07:21:06.797Z,16.90
2022-08-05T07:21:59.973Z,17.00
2022-08-05T07:22:32.086Z,17.00
2022-08-05T07:23:04.476Z,17.00
2022-08-05T07:23:37.394Z,17.00
2022-08-05T07:24:21.426Z,17.00
2022-08-05T07:24:53.700Z,17.00
2022-08-05T07:25:54.930Z,17.00
2022-08-05T07:26:22.576Z,17.00
2022-08-05T07:26:54.663Z,17.00
2022-08-05T07:27:27.638Z,17.00
2022-08-05T07:28:18.783Z,17.00
2022-08-05T07:28:50.829Z,17.00
2022-08-05T07:29:25.345Z,17.00
2022-08-05T07:30:24.161Z,18.60
2022-08-05T07:31:00.119Z,17.10
2022-08-05T07:31:40.408Z,17.00
2022-08-05T07:32:26.071Z,17.00
2022-08-05T07:32:58.288Z,17.00
2022-08-05T07:33:37.153Z,17.00
2022-08-05T07:34:09.610Z,17.00
2022-08-05T07:34:45.788Z,17.00
2022-08-05T07:36:01.937Z,16.90
2022-08-05T07:36:20.195Z,16.90
2022-08-05T07:36:53.514Z,17.00
2022-08-05T07:37:29.056Z,17.00
2022-08-05T07:38:07.829Z,17.00
2022-08-05T07:38:44.318Z,17.00
2022-08-05T07:39:24.754Z,16.90
2022-08-05T07:40:26.706Z,17.40
2022-08-05T07:41:16.778Z,16.90
2022-08-05T07:42:13.302Z,16.90
2022-08-05T07:42:45.110Z,16.90
2022-08-05T07:43:20.712Z,16.90
2022-08-05T07:43:56.077Z,16.90
2022-08-05T07:44:28.572Z,16.90
2022-08-05T07:45:01.284Z,16.90
2022-08-05T07:45:57.493Z,16.90
2022-08-05T07:46:27.812Z,16.90
2022-08-05T07:46:59.553Z,16.90
2022-08-05T07:47:42.386Z,16.90
2022-08-05T07:48:14.402Z,16.90
2022-08-05T07:49:07.800Z,16.80
2022-08-05T07:49:43.561Z,16.90
2022-08-05T07:50:32.549Z,16.90
2022-08-05T07:51:23.083Z,16.90
2022-08-05T07:51:55.867Z,16.90
2022-08-05T07:52:28.417Z,17.00
2022-08-05T07:53:00.199Z,16.90
2022-08-05T07:53:36.959Z,16.90
2022-08-05T07:54:30.720Z,16.90
2022-08-05T07:55:15.822Z,17.00
2022-08-05T07:56:06.612Z,17.00
2022-08-05T07:57:01.238Z,17.00
2022-08-05T07:57:57.486Z,17.00
2022-08-05T07:58:57.544Z,17.00
2022-08-05T07:59:38.967Z,17.00
2022-08-05T08:00:14.672Z,17.00
2022-08-05T08:00:46.562Z,17.00
2022-08-05T08:01:18.719Z,17.00
2022-08-05T08:01:57.664Z,17.00
2022-08-05T08:02:31.378Z,16.90
2022-08-05T08:03:21.988Z,17.50
2022-08-05T08:03:53.804Z,16.90
2022-08-05T08:04:37.839Z,17.00
2022-08-05T08:05:11.422Z,16.90
2022-08-05T08:05:49.790Z,16.90
2022-08-05T08:06:21.844Z,16.90
2022-08-05T08:07:00.912Z,16.20
2022-08-05T08:07:39.415Z,16.90
2022-08-05T08:08:29.828Z,16.90
2022-08-05T08:09:01.726Z,16.90
2022-08-05T08:09:33.558Z,17.00
2022-08-05T08:10:06.536Z,16.90
2022-08-05T08:10:39.420Z,16.90
2022-08-05T08:11:15.903Z,16.90
2022-08-05T08:11:58.990Z,16.90
2022-08-05T08:12:49.324Z,16.90
2022-08-05T08:13:28.852Z,16.90
2022-08-05T08:14:01.347Z,16.90
2022-08-05T08:14:33.158Z,16.90
2022-08-05T08:15:13.954Z,16.90
2022-08-05T08:16:49.987Z,16.90
2022-08-05T08:16:50.504Z,16.90
2022-08-05T08:17:23.574Z,16.90
2022-08-05T08:17:55.716Z,16.90
2022-08-05T08:18:33.709Z,16.90
2022-08-05T08:19:05.590Z,17.00
2022-08-05T08:20:42.897Z,17.00
2022-08-05T08:21:00.641Z,17.00
2022-08-05T08:21:23.438Z,17.00
2022-08-05T08:21:55.201Z,17.00
2022-08-05T08:22:27.348Z,17.00
2022-08-05T08:23:03.137Z,17.00
2022-08-05T08:24:02.807Z,16.90
2022-08-05T08:24:51.008Z,17.00
2022-08-05T08:25:26.789Z,16.90
2022-08-05T08:26:11.615Z,16.80
2022-08-05T08:26:43.722Z,17.00
2022-08-05T08:27:16.614Z,17.00
2022-08-05T08:27:51.475Z,17.00
2022-08-05T08:28:35.493Z,17.00
2022-08-05T08:30:04.101Z,17.00
2022-08-05T08:30:05.803Z,17.00
2022-08-05T08:30:51.397Z,17.00
2022-08-05T08:31:23.242Z,16.90
2022-08-05T08:31:58.772Z,17.00
2022-08-05T08:32:33.462Z,17.00
2022-08-05T08:33:13.607Z,17.00
2022-08-05T08:33:46.955Z,17.00
2022-08-05T08:34:30.268Z,17.00
2022-08-05T08:35:06.279Z,17.00
2022-08-05T08:35:53.126Z,17.00
2022-08-05T08:36:49.937Z,17.00
2022-08-05T08:37:21.557Z,17.00
2022-08-05T08:37:59.571Z,17.10
2022-08-05T08:38:35.967Z,17.00
2022-08-05T08:39:15.154Z,17.00
2022-08-05T08:39:49.401Z,17.10
2022-08-05T08:40:22.035Z,17.10
2022-08-05T08:40:54.738Z,17.10
2022-08-05T08:41:52.183Z,17.10
2022-08-05T08:42:34.430Z,17.00
2022-08-05T08:45:16.187Z,17.10
2022-08-05T08:45:18.646Z,17.10
2022-08-05T08:45:25.004Z,17.10
2022-08-05T08:45:57.757Z,17.10
2022-08-05T08:46:31.949Z,17.20
2022-08-05T08:47:47.216Z,17.20
2022-08-05T08:48:12.442Z,17.20
2022-08-05T08:49:07.764Z,17.20
2022-08-05T08:50:22.826Z,17.20
2022-08-05T08:51:21.920Z,17.20
2022-08-05T08:52:05.590Z,17.20
2022-08-05T08:52:33.967Z,14.80
2022-08-05T08:53:08.201Z,17.20
2022-08-05T08:53:45.358Z,17.10
2022-08-05T08:54:17.341Z,17.20
2022-08-05T08:54:52.955Z,17.20
2022-08-05T08:56:02.882Z,17.20
2022-08-05T08:56:18.186Z,17.20
2022-08-05T08:56:50.242Z,17.20
2022-08-05T08:57:23.694Z,17.20
2022-08-05T08:58:16.901Z,17.20
2022-08-05T08:58:49.557Z,17.30
2022-08-05T08:59:27.864Z,17.20
2022-08-05T09:00:06.921Z,17.30
2022-08-05T09:00:41.472Z,17.30
2022-08-05T09:01:16.391Z,17.30
2022-08-05T09:01:57.418Z,17.30
2022-08-05T09:02:33.710Z,17.30
2022-08-05T09:03:07.794Z,17.30
2022-08-05T09:03:45.215Z,17.30
2022-08-05T09:04:18.346Z,17.30
2022-08-05T09:05:16.470Z,17.30
2022-08-05T09:06:09.058Z,17.40
2022-08-05T09:06:38.067Z,17.40
2022-08-05T09:07:19.603Z,17.40
2022-08-05T09:08:03.009Z,17.40
2022-08-05T09:08:35.869Z,17.40
2022-08-05T09:09:12.204Z,17.40
2022-08-05T09:09:45.313Z,17.50
2022-08-05T09:10:27.018Z,17.50
2022-08-05T09:10:59.826Z,17.50
2022-08-05T09:11:51.322Z,17.50
2022-08-05T09:12:27.189Z,17.50
2022-08-05T09:13:04.924Z,17.60
2022-08-05T09:13:41.527Z,17.50
2022-08-05T09:14:57.231Z,17.50
2022-08-05T09:15:23.523Z,17.60
2022-08-05T09:15:57.215Z,17.60
2022-08-05T09:16:29.524Z,17.60
2022-08-05T09:17:09.311Z,17.60
2022-08-05T09:17:45.720Z,17.60
2022-08-05T09:18:21.654Z,17.60
2022-08-05T09:18:55.527Z,17.70
2022-08-05T09:19:27.916Z,17.70
2022-08-05T09:20:09.323Z,17.70
2022-08-05T09:20:44.415Z,17.70
2022-08-05T09:21:21.171Z,17.80
2022-08-05T09:22:22.621Z,17.70
2022-08-05T09:23:09.350Z,17.80
2022-08-05T09:23:43.950Z,17.80
2022-08-05T09:24:15.974Z,17.80
2022-08-05T09:25:01.304Z,17.80
2022-08-05T09:26:02.044Z,17.80
2022-08-05T09:26:25.872Z,17.80
2022-08-05T09:27:09.409Z,17.90
2022-08-05T09:28:04.891Z,17.90
2022-08-05T09:28:34.810Z,17.90
2022-08-05T09:29:08.729Z,17.90
2022-08-05T09:29:48.005Z,17.90
2022-08-05T09:30:23.240Z,17.90
2022-08-05T09:30:58.794Z,17.90
2022-08-05T09:32:42.352Z,18.00
2022-08-05T09:32:45.923Z,18.00
2022-08-05T09:33:20.016Z,18.00
2022-08-05T09:33:59.572Z,18.00
2022-08-05T09:34:51.647Z,18.00
2022-08-05T09:35:27.300Z,18.00
2022-08-05T09:36:11.741Z,18.00
2022-08-05T09:36:55.988Z,18.10
2022-08-05T09:38:17.209Z,18.10
2022-08-05T09:38:29.396Z,18.10
2022-08-05T09:39:18.076Z,18.10
2022-08-05T09:39:52.105Z,18.20
2022-08-05T09:40:41.123Z,18.20
2022-08-05T09:41:24.778Z,18.20
2022-08-05T09:42:04.190Z,18.20
2022-08-05T09:42:40.971Z,18.20
2022-08-05T09:43:40.932Z,18.10
2022-08-05T09:44:50.562Z,18.30
2022-08-05T09:46:06.465Z,18.30
2022-08-05T09:46:35.051Z,18.30
2022-08-05T09:47:13.925Z,18.30
2022-08-05T09:47:56.050Z,18.40
2022-08-05T09:48:33.819Z,18.40
2022-08-05T09:49:23.175Z,18.40
2022-08-05T09:50:37.545Z,18.40
2022-08-05T09:51:15.360Z,18.40
2022-08-05T09:51:49.488Z,18.50
2022-08-05T09:52:27.941Z,18.50
2022-08-05T09:52:59.746Z,18.50
2022-08-05T09:53:59.030Z,18.50
2022-08-05T09:54:31.590Z,18.50
2022-08-05T09:55:56.534Z,18.60
2022-08-05T09:56:04.902Z,18.60
2022-08-05T09:56:52.480Z,18.60
2022-08-05T09:57:35.256Z,18.60
2022-08-05T09:58:12.929Z,18.70
2022-08-05T09:59:07.010Z,18.70
2022-08-05T09:59:38.787Z,18.70
2022-08-05T10:00:21.148Z,18.70
2022-08-05T10:01:15.240Z,18.70
2022-08-05T10:01:58.397Z,18.70
2022-08-05T10:02:47.234Z,18.80
2022-08-05T10:03:19.275Z,18.80
2022-08-05T10:04:10.059Z,18.80
2022-08-05T10:04:44.349Z,18.80
2022-08-05T10:05:19.174Z,18.80
2022-08-05T10:06:07.773Z,18.90
2022-08-05T10:06:58.806Z,18.90
2022-08-05T10:08:36.010Z,18.90
2022-08-05T10:08:43.306Z,18.90
2022-08-05T10:09:29.592Z,18.90
2022-08-05T10:10:13.972Z,18.90
2022-08-05T10:10:50.233Z,19.00
2022-08-05T10:11:31.210Z,19.00
2022-08-05T10:12:30.169Z,19.00
2022-08-05T10:13:09.888Z,19.00
2022-08-05T10:13:47.132Z,19.10
2022-08-05T10:14:32.910Z,19.10
2022-08-05T10:15:34.151Z,19.10
2022-08-05T10:16:27.038Z,19.10
2022-08-05T10:17:37.387Z,19.10
2022-08-05T10:18:17.510Z,19.10
2022-08-05T10:18:49.562Z,19.20
2022-08-05T10:20:03.290Z,19.20
2022-08-05T10:20:18.290Z,19.20
2022-08-05T10:20:55.505Z,19.30
2022-08-05T10:21:27.598Z,19.30
2022-08-05T10:22:09.084Z,19.30
2022-08-05T10:22:51.092Z,19.20
2022-08-05T10:23:50.928Z,19.30
2022-08-05T10:24:19.135Z,19.30
2022-08-05T10:24:56.941Z,19.30
2022-08-05T10:25:28.850Z,19.40
2022-08-05T10:26:03.917Z,19.40
2022-08-05T10:26:51.267Z,19.40
2022-08-05T10:27:26.370Z,19.40
2022-08-05T10:28:29.002Z,19.40
2022-08-05T10:29:02.468Z,19.40
2022-08-05T10:30:07.123Z,19.50
2022-08-05T10:32:47.243Z,19.50
2022-08-05T10:32:52.606Z,19.50
2022-08-05T10:32:55.162Z,19.50
2022-08-05T10:33:09.240Z,19.50
2022-08-05T10:33:52.333Z,19.60
2022-08-05T10:34:31.033Z,19.60
2022-08-05T10:35:03.846Z,19.60
2022-08-05T10:35:40.555Z,19.60
2022-08-05T10:36:16.662Z,19.60
2022-08-05T10:36:55.774Z,17.90
2022-08-05T10:37:40.243Z,19.70
2022-08-05T10:38:23.535Z,19.70
2022-08-05T10:39:05.220Z,19.70
2022-08-05T10:39:59.018Z,19.70
2022-08-05T10:40:58.064Z,19.70
2022-08-05T10:41:46.563Z,19.70
2022-08-05T10:42:34.065Z,19.80
2022-08-05T10:43:35.838Z,19.80
2022-08-05T10:44:13.082Z,19.80
2022-08-05T10:44:46.164Z,19.80
2022-08-05T10:45:30.701Z,19.80
2022-08-05T10:46:15.115Z,19.80
2022-08-05T10:46:46.879Z,19.80
2022-08-05T10:47:32.856Z,19.90
2022-08-05T10:48:36.076Z,19.90
2022-08-05T10:49:27.251Z,19.90
2022-08-05T10:50:31.810Z,19.90
2022-08-05T10:51:22.210Z,19.90
2022-08-05T10:52:02.635Z,20.00
2022-08-05T10:52:46.945Z,20.00
2022-08-05T10:53:51.991Z,20.00
2022-08-05T10:55:02.062Z,20.10
2022-08-05T10:56:03.468Z,20.00
2022-08-05T10:56:36.531Z,20.10
2022-08-05T10:57:13.087Z,20.10
2022-08-05T10:57:46.869Z,20.10
2022-08-05T10:58:23.235Z,20.10
2022-08-05T11:00:01.371Z,20.10
2022-08-05T11:00:20.456Z,20.10
2022-08-05T11:01:03.057Z,20.20
2022-08-05T11:01:55.644Z,20.20
2022-08-05T11:02:38.617Z,20.20
2022-08-05T11:03:23.181Z,20.20
2022-08-05T11:04:08.639Z,20.20
2022-08-05T11:04:48.433Z,20.20
2022-08-05T11:05:20.978Z,20.30
2022-08-05T11:06:15.769Z,20.30
2022-08-05T11:06:58.354Z,20.30
2022-08-05T11:07:32.792Z,20.30
2022-08-05T11:08:37.175Z,20.30
2022-08-05T11:09:18.797Z,20.30
2022-08-05T11:10:10.177Z,20.40
2022-08-05T11:10:50.023Z,20.40
2022-08-05T11:11:52.259Z,20.40
2022-08-05T11:12:34.218Z,20.40
2022-08-05T11:13:09.798Z,20.40
2022-08-05T11:13:57.600Z,20.50
2022-08-05T11:15:00.838Z,20.50
2022-08-05T11:16:00.729Z,20.50
2022-08-05T11:16:33.872Z,20.50
2022-08-05T11:17:59.322Z,20.50
2022-08-05T11:18:32.455Z,20.50
2022-08-05T11:20:10.526Z,20.60
2022-08-05T11:20:44.160Z,20.60
2022-08-05T11:21:48.675Z,20.60
2022-08-05T11:22:39.171Z,20.60
2022-08-05T11:24:02.947Z,20.70
2022-08-05T11:24:30.545Z,20.70
2022-08-05T11:26:04.085Z,20.70
2022-08-05T11:26:29.182Z,20.70
2022-08-05T11:27:45.821Z,20.80
2022-08-05T11:28:22.516Z,20.80
2022-08-05T11:28:57.098Z,20.80
2022-08-05T11:29:40.881Z,20.80
2022-08-05T11:30:12.751Z,20.90
2022-08-05T11:31:01.450Z,20.90
2022-08-05T11:31:53.882Z,20.90
2022-08-05T11:32:30.080Z,20.90
2022-08-05T11:33:43.774Z,20.90
2022-08-05T11:34:37.547Z,20.90
2022-08-05T11:36:07.422Z,21.00
2022-08-05T11:36:42.989Z,21.00
2022-08-05T11:38:30.297Z,21.00
2022-08-05T11:38:57.542Z,21.10
2022-08-05T11:40:00.296Z,21.20
2022-08-05T11:41:13.913Z,21.10
2022-08-05T11:42:01.357Z,21.20
2022-08-05T11:42:41.896Z,21.20
2022-08-05T11:44:04.601Z,21.20
2022-08-05T11:44:40.192Z,18.80
2022-08-05T11:45:14.248Z,21.20
2022-08-05T11:46:27.120Z,21.30
2022-08-05T11:47:09.282Z,21.30
2022-08-05T11:47:49.437Z,21.30
2022-08-05T11:48:22.703Z,21.30
2022-08-05T11:48:57.757Z,21.40
2022-08-05T11:49:34.095Z,21.40
2022-08-05T11:50:06.470Z,21.40
2022-08-05T11:50:39.590Z,21.40
2022-08-05T11:51:11.426Z,21.40
2022-08-05T11:52:11.179Z,21.40
2022-08-05T11:52:46.111Z,21.50
2022-08-05T11:53:21.933Z,21.50
2022-08-05T11:53:55.213Z,21.50
2022-08-05T11:54:34.380Z,21.50
2022-08-05T11:55:10.387Z,21.40
2022-08-05T11:55:58.451Z,21.50
2022-08-05T11:56:52.203Z,21.50
2022-08-05T11:57:30.681Z,20.20
2022-08-05T11:58:13.018Z,21.60
2022-08-05T11:58:53.194Z,21.60
2022-08-05T11:59:27.365Z,18.90
2022-08-05T11:59:59.993Z,24.30
2022-08-05T12:00:32.027Z,21.70
2022-08-05T12:01:10.596Z,22.30
2022-08-05T12:01:54.812Z,21.70
2022-08-05T12:02:33.346Z,21.70
2022-08-05T12:03:29.515Z,21.70
2022-08-05T12:04:04.289Z,21.70
2022-08-05T12:04:39.765Z,21.70
2022-08-05T12:05:36.240Z,21.80
2022-08-05T12:06:13.351Z,21.80
2022-08-05T12:06:48.957Z,21.80
2022-08-05T12:08:10.330Z,21.80
2022-08-05T12:08:18.144Z,21.80
2022-08-05T12:08:58.324Z,21.80
2022-08-05T12:09:52.578Z,21.80
2022-08-05T12:10:38.621Z,21.80
2022-08-05T12:11:22.005Z,21.90
2022-08-05T12:11:54.697Z,21.90
2022-08-05T12:12:30.196Z,21.90
2022-08-05T12:13:15.993Z,21.90
2022-08-05T12:13:58.665Z,21.90
2022-08-05T12:14:40.571Z,21.90
2022-08-05T12:15:35.775Z,22.00
2022-08-05T12:16:18.603Z,22.00
2022-08-05T12:16:50.425Z,22.00
2022-08-05T12:18:02.738Z,22.00
2022-08-05T12:18:33.260Z,22.00
2022-08-05T12:19:08.171Z,22.10
2022-08-05T12:20:25.515Z,22.10
2022-08-05T12:20:38.463Z,22.10
2022-08-05T12:21:11.375Z,22.10
2022-08-05T12:21:51.052Z,22.10
2022-08-05T12:22:29.883Z,22.10
2022-08-05T12:23:11.428Z,22.10
2022-08-05T12:24:06.954Z,22.20
2022-08-05T12:24:49.656Z,22.20
2022-08-05T12:25:28.458Z,22.20
2022-08-05T12:26:00.421Z,22.20
2022-08-05T12:26:33.000Z,22.20
2022-08-05T12:27:09.829Z,22.30
2022-08-05T12:27:53.633Z,22.30
2022-08-05T12:28:32.347Z,22.30
2022-08-05T12:29:09.863Z,22.30
2022-08-05T12:29:43.744Z,22.30
2022-08-05T12:30:29.006Z,22.30
2022-08-05T12:31:05.142Z,22.40
2022-08-05T12:31:46.112Z,22.30
2022-08-05T12:32:21.727Z,22.40
2022-08-05T12:32:58.717Z,22.40
2022-08-05T12:33:39.660Z,22.40
2022-08-05T12:34:21.232Z,22.40
2022-08-05T12:34:54.036Z,22.50
2022-08-05T12:35:39.671Z,22.50
2022-08-05T12:36:12.636Z,22.40
2022-08-05T12:36:46.375Z,22.50
2022-08-05T12:37:21.798Z,22.50
2022-08-05T12:37:54.702Z,22.50
2022-08-05T12:38:30.266Z,22.50
2022-08-05T12:39:06.846Z,22.50
2022-08-05T12:39:40.671Z,22.50
2022-08-05T20:41:23.874Z,21.80
2022-08-05T20:44:30.822Z,21.80
2022-08-05T20:45:04.485Z,21.60
2022-08-05T20:45:55.765Z,19.80
2022-08-05T20:46:28.867Z,21.60
2022-08-05T20:47:03.336Z,21.50
2022-08-05T20:47:35.546Z,21.50
2022-08-05T20:48:12.458Z,21.50
2022-08-05T20:48:51.066Z,21.60
2022-08-05T20:49:24.537Z,21.40